Time;durP1;ratioP1;P1;durP2;ratioP2;P2;SDS_P1;SDS_P2;PMS_P1;PMS_P2;Temp;Humidity;BMP_temperature;BMP_pressure;BME280_temperature;BME280_humidity;BME280_pressure;Samples;Min_cycle;Max_cycle;Signal;HPM_P1;HPM_P2
2022/05/21 00:01:45;;;;;;;10.47;4.37;;;;;;;;;;4889210;29;20701;-43
2022/05/21 00:04:11;;;;;;;7.13;3.57;;;;;;;;;;4923880;28;20648;-43
2022/05/21 00:06:38;;;;;;;7.67;3.73;;;;;;;;;;4958731;28;20743;-43
2022/05/21 00:09:05;;;;;;;8.30;3.97;;;;;;;;;;4953330;28;20618;-43
2022/05/21 00:11:31;;;;;;;12.93;4.13;;;;;;;;;;4954452;28;20178;-41
2022/05/21 00:13:57;;;;;;;9.40;4.17;;;;;;;;;;4955043;28;21792;-43
2022/05/21 00:16:23;;;;;;;8.60;3.90;;;;;;;;;;4952751;28;20726;-43
2022/05/21 00:18:49;;;;;;;14.87;4.30;;;;;;;;;;4953691;28;20241;-43
2022/05/21 00:21:15;;;;;;;11.00;4.30;;;;;;;;;;4955621;28;20190;-43
2022/05/21 00:23:42;;;;;;;6.17;3.90;;;;;;;;;;4959129;28;20178;-43
2022/05/21 00:26:09;;;;;;;11.87;4.50;;;;;;;;;;4953826;28;20183;-43
2022/05/21 00:28:37;;;;;;;7.50;4.50;;;;;;;;;;4957067;28;20177;-42
2022/05/21 00:31:04;;;;;;;7.40;4.67;;;;;;;;;;4956220;28;20182;-42
2022/05/21 00:33:30;;;;;;;9.90;5.33;;;;;;;;;;4956252;28;20366;-43
2022/05/21 00:35:56;;;;;;;10.53;5.87;;;;;;;;;;4956407;28;20760;-43
2022/05/21 00:38:22;;;;;;;8.83;6.23;;;;;;;;;;4959966;28;20213;-43
2022/05/21 00:40:49;;;;;;;10.27;6.70;;;;;;;;;;4958756;28;20674;-43
2022/05/21 00:43:34;;;;;;;9.40;6.07;;;;;;;;;;4957364;28;20187;-43
2022/05/21 00:46:00;;;;;;;13.63;6.13;;;;;;;;;;4955665;28;20212;-43
2022/05/21 00:48:26;;;;;;;7.53;5.10;;;;;;;;;;4959419;28;20682;-43
2022/05/21 00:50:52;;;;;;;10.83;5.97;;;;;;;;;;4955355;28;20521;-43
2022/05/21 00:53:19;;;;;;;8.63;5.53;;;;;;;;;;4956648;28;20280;-43
2022/05/21 00:55:46;;;;;;;7.60;5.50;;;;;;;;;;4959512;28;20734;-42
2022/05/21 01:00:58;;;;;;;11.73;5.20;;;;;;;;;;4954745;28;20799;-42
2022/05/21 01:03:25;;;;;;;9.57;4.83;;;;;;;;;;4955093;28;20257;-43
2022/05/21 01:05:52;;;;;;;8.13;5.70;;;;;;;;;;4959305;28;20178;-42
2022/05/21 01:08:18;;;;;;;12.30;5.20;;;;;;;;;;4957747;28;20664;-43
2022/05/21 01:10:47;;;;;;;8.73;5.40;;;;;;;;;;4955487;28;20252;-43
2022/05/21 01:13:15;;;;;;;9.23;5.47;;;;;;;;;;4958025;28;20473;-43
2022/05/21 01:15:43;;;;;;;12.23;5.97;;;;;;;;;;4955894;28;20192;-44
2022/05/21 01:18:10;;;;;;;9.20;5.20;;;;;;;;;;4956030;28;20193;-43
2022/05/21 01:20:36;;;;;;;8.43;5.10;;;;;;;;;;4952718;28;20190;-43
2022/05/21 01:23:03;;;;;;;6.20;4.80;;;;;;;;;;4960208;28;20178;-43
2022/05/21 01:25:31;;;;;;;8.77;5.10;;;;;;;;;;4956908;28;20787;-43
2022/05/21 01:27:58;;;;;;;8.37;4.60;;;;;;;;;;4951989;28;20193;-43
2022/05/21 01:30:47;;;;;;;8.27;4.70;;;;;;;;;;4956304;28;20338;-43
2022/05/21 01:33:14;;;;;;;6.17;4.47;;;;;;;;;;4948247;28;20709;-43
2022/05/21 01:35:42;;;;;;;9.17;4.30;;;;;;;;;;4954721;28;20527;-43
2022/05/21 01:38:09;;;;;;;8.47;4.60;;;;;;;;;;4953987;28;20163;-43
2022/05/21 01:40:35;;;;;;;9.53;5.23;;;;;;;;;;4957048;28;20182;-43
2022/05/21 01:45:48;;;;;;;9.60;4.90;;;;;;;;;;4952819;28;20800;-42
2022/05/21 01:48:18;;;;;;;8.33;4.53;;;;;;;;;;4956041;28;20214;-43
2022/05/21 01:50:45;;;;;;;11.07;5.27;;;;;;;;;;4954682;28;20229;-42
2022/05/21 01:53:11;;;;;;;11.57;5.40;;;;;;;;;;4955450;28;20535;-42
2022/05/21 01:55:38;;;;;;;13.10;4.93;;;;;;;;;;4958751;28;20304;-43
2022/05/21 01:58:04;;;;;;;12.00;6.23;;;;;;;;;;4955658;28;20178;-42
2022/05/21 02:00:30;;;;;;;13.33;7.60;;;;;;;;;;4954507;28;20179;-43
2022/05/21 02:02:56;;;;;;;11.10;6.90;;;;;;;;;;4956586;28;20453;-43
2022/05/21 02:05:23;;;;;;;11.63;7.13;;;;;;;;;;4951201;28;20182;-43
2022/05/21 02:07:49;;;;;;;15.57;8.03;;;;;;;;;;4964497;28;20571;-43
2022/05/21 02:10:15;;;;;;;16.97;8.03;;;;;;;;;;4961221;28;20281;-42
2022/05/21 02:12:41;;;;;;;13.53;7.70;;;;;;;;;;4958736;28;20189;-43
2022/05/21 02:15:07;;;;;;;16.33;8.50;;;;;;;;;;4961776;28;20654;-43
2022/05/21 02:17:33;;;;;;;13.63;8.10;;;;;;;;;;4960985;28;20579;-42
2022/05/21 02:20:00;;;;;;;12.83;8.20;;;;;;;;;;4960224;28;20657;-43
2022/05/21 02:22:27;;;;;;;12.93;8.13;;;;;;;;;;4962061;28;20280;-43
2022/05/21 02:24:53;;;;;;;12.83;8.10;;;;;;;;;;4961695;28;20394;-42
2022/05/21 02:27:19;;;;;;;12.83;7.87;;;;;;;;;;4957012;28;20174;-42
2022/05/21 02:29:45;;;;;;;10.07;7.73;;;;;;;;;;4956759;28;20187;-42
2022/05/21 02:32:12;;;;;;;10.80;8.50;;;;;;;;;;4962754;28;20449;-43
2022/05/21 02:34:39;;;;;;;14.93;8.83;;;;;;;;;;4958663;28;20502;-43
2022/05/21 02:39:50;;;;;;;9.67;8.07;;;;;;;;;;4961911;28;20276;-43
2022/05/21 02:45:03;;;;;;;9.20;6.70;;;;;;;;;;4955629;28;20189;-42
2022/05/21 02:47:30;;;;;;;11.97;6.70;;;;;;;;;;4961027;28;20763;-42
2022/05/21 02:49:56;;;;;;;9.80;5.90;;;;;;;;;;4961785;28;20582;-41
2022/05/21 02:52:22;;;;;;;13.97;5.83;;;;;;;;;;4956510;28;20177;-42
2022/05/21 02:54:49;;;;;;;15.13;6.13;;;;;;;;;;4956884;28;20176;-42
2022/05/21 02:57:15;;;;;;;12.43;6.30;;;;;;;;;;4962258;28;20174;-42
2022/05/21 02:59:42;;;;;;;10.27;5.83;;;;;;;;;;4955690;28;20326;-40
2022/05/21 03:02:08;;;;;;;9.43;5.53;;;;;;;;;;4958236;28;20175;-42
2022/05/21 03:04:34;;;;;;;9.40;5.47;;;;;;;;;;4960980;28;20180;-41
2022/05/21 03:07:01;;;;;;;9.03;5.20;;;;;;;;;;4957840;28;20919;-42
2022/05/21 03:12:12;;;;;;;7.73;4.50;;;;;;;;;;4961267;28;20560;-42
2022/05/21 03:14:39;;;;;;;6.27;4.53;;;;;;;;;;4954484;28;20177;-42
2022/05/21 03:17:05;;;;;;;10.23;4.17;;;;;;;;;;4955701;28;20872;-42
2022/05/21 03:19:33;;;;;;;6.97;4.60;;;;;;;;;;4961582;28;20194;-42
2022/05/21 03:21:59;;;;;;;9.37;4.87;;;;;;;;;;4957498;28;20721;-42
2022/05/21 03:24:26;;;;;;;10.07;4.67;;;;;;;;;;4954864;28;21141;-41
2022/05/21 03:26:52;;;;;;;9.97;4.80;;;;;;;;;;4956492;28;20182;-40
2022/05/21 03:29:18;;;;;;;10.33;4.13;;;;;;;;;;4953416;28;20182;-42
2022/05/21 03:31:44;;;;;;;7.77;4.83;;;;;;;;;;4955967;28;20225;-42
2022/05/21 03:34:10;;;;;;;14.03;5.13;;;;;;;;;;4958931;28;20191;-42
2022/05/21 03:36:37;;;;;;;14.07;5.93;;;;;;;;;;4962506;28;20284;-42
2022/05/21 03:39:03;;;;;;;14.53;5.80;;;;;;;;;;4957884;28;20201;-42
2022/05/21 03:41:30;;;;;;;12.63;6.43;;;;;;;;;;4959252;28;20871;-41
2022/05/21 03:43:56;;;;;;;15.97;6.70;;;;;;;;;;4957960;28;20531;-42
2022/05/21 03:46:23;;;;;;;15.83;7.50;;;;;;;;;;4959279;28;20880;-41
2022/05/21 03:48:49;;;;;;;12.73;7.70;;;;;;;;;;4957979;28;20197;-42
2022/05/21 03:51:15;;;;;;;11.80;6.33;;;;;;;;;;4961115;28;20178;-41
2022/05/21 03:53:41;;;;;;;11.53;7.47;;;;;;;;;;4958825;28;20484;-40
2022/05/21 03:56:08;;;;;;;15.00;7.73;;;;;;;;;;4955337;28;20182;-41
2022/05/21 03:58:34;;;;;;;15.63;8.17;;;;;;;;;;4958902;28;20751;-42
2022/05/21 04:01:00;;;;;;;13.93;8.10;;;;;;;;;;4957925;28;20181;-42
2022/05/21 04:03:27;;;;;;;13.80;7.97;;;;;;;;;;4958472;28;21179;-42
2022/05/21 04:05:56;;;;;;;13.20;8.60;;;;;;;;;;4955749;28;20178;-42
2022/05/21 04:08:23;;;;;;;22.60;11.23;;;;;;;;;;4956650;28;20261;-40
2022/05/21 04:10:49;;;;;;;19.07;10.47;;;;;;;;;;4953084;28;20182;-41
2022/05/21 04:13:15;;;;;;;17.77;9.73;;;;;;;;;;4953662;28;20372;-41
2022/05/21 04:15:42;;;;;;;20.00;11.17;;;;;;;;;;4954828;28;20698;-42
2022/05/21 04:18:08;;;;;;;18.40;11.00;;;;;;;;;;4957302;28;20182;-42
2022/05/21 04:20:34;;;;;;;21.93;10.93;;;;;;;;;;4956002;28;20186;-41
2022/05/21 04:23:00;;;;;;;23.90;10.83;;;;;;;;;;4952748;28;20687;-43
2022/05/21 04:25:26;;;;;;;18.50;12.83;;;;;;;;;;4954540;28;20433;-42
2022/05/21 04:27:52;;;;;;;27.33;12.40;;;;;;;;;;4953552;28;20629;-42
2022/05/21 04:30:20;;;;;;;19.20;10.47;;;;;;;;;;4952213;28;20228;-41
2022/05/21 04:32:48;;;;;;;14.77;9.97;;;;;;;;;;4953688;28;20218;-42
2022/05/21 04:35:14;;;;;;;16.03;10.00;;;;;;;;;;4961102;28;20188;-41
2022/05/21 04:37:41;;;;;;;15.70;9.30;;;;;;;;;;4956770;28;21009;-42
2022/05/21 04:40:09;;;;;;;14.80;10.10;;;;;;;;;;4957537;28;20202;-42
2022/05/21 04:42:35;;;;;;;20.07;10.87;;;;;;;;;;4958687;28;20186;-42
2022/05/21 04:45:02;;;;;;;14.23;9.93;;;;;;;;;;4955446;28;20289;-44
2022/05/21 04:47:28;;;;;;;16.67;10.33;;;;;;;;;;4955758;28;20332;-43
2022/05/21 04:49:54;;;;;;;20.70;10.80;;;;;;;;;;4959639;28;20663;-41
2022/05/21 04:52:20;;;;;;;16.53;10.40;;;;;;;;;;4958649;28;20653;-42
2022/05/21 04:54:46;;;;;;;15.87;10.37;;;;;;;;;;4961227;28;20182;-43
2022/05/21 04:57:12;;;;;;;17.50;11.20;;;;;;;;;;4961777;28;20424;-44
2022/05/21 04:59:38;;;;;;;19.97;10.80;;;;;;;;;;4940265;28;20206;-43
2022/05/21 05:02:05;;;;;;;13.67;8.90;;;;;;;;;;4957204;28;20217;-43
2022/05/21 05:04:31;;;;;;;15.40;8.63;;;;;;;;;;4956281;28;20451;-43
2022/05/21 05:06:57;;;;;;;12.40;8.87;;;;;;;;;;4959243;28;20178;-43
2022/05/21 05:09:24;;;;;;;15.23;8.00;;;;;;;;;;4960633;28;20181;-44
2022/05/21 05:11:51;;;;;;;18.93;9.10;;;;;;;;;;4955163;28;20673;-43
2022/05/21 05:14:17;;;;;;;17.03;8.67;;;;;;;;;;4953814;28;20553;-43
2022/05/21 05:16:43;;;;;;;13.37;8.30;;;;;;;;;;4959662;28;20816;-43
2022/05/21 05:19:09;;;;;;;15.53;8.57;;;;;;;;;;4957038;28;20196;-43
2022/05/21 05:21:36;;;;;;;13.53;8.93;;;;;;;;;;4962015;28;20528;-43
2022/05/21 05:24:02;;;;;;;12.87;9.13;;;;;;;;;;4951552;28;20710;-43
2022/05/21 05:26:28;;;;;;;19.87;9.27;;;;;;;;;;4953262;28;20418;-42
2022/05/21 05:28:54;;;;;;;18.97;8.87;;;;;;;;;;4958618;28;20583;-42
2022/05/21 05:31:20;;;;;;;17.03;8.33;;;;;;;;;;4956900;28;20189;-42
2022/05/21 05:33:46;;;;;;;13.93;9.00;;;;;;;;;;4952832;28;20647;-41
2022/05/21 05:36:13;;;;;;;14.07;7.73;;;;;;;;;;4960006;28;20180;-42
2022/05/21 05:38:39;;;;;;;18.93;8.63;;;;;;;;;;4955627;28;20628;-42
2022/05/21 05:41:07;;;;;;;15.33;8.33;;;;;;;;;;4961002;28;20170;-43
2022/05/21 05:43:33;;;;;;;19.33;9.60;;;;;;;;;;4961587;28;20193;-44
2022/05/21 05:45:59;;;;;;;18.23;9.17;;;;;;;;;;4961084;28;20608;-43
2022/05/21 05:48:26;;;;;;;22.43;9.93;;;;;;;;;;4963172;28;20268;-43
2022/05/21 05:50:52;;;;;;;16.30;9.80;;;;;;;;;;4959950;28;20499;-44
2022/05/21 05:53:18;;;;;;;20.90;9.43;;;;;;;;;;4953859;28;20206;-44
2022/05/21 05:55:44;;;;;;;14.73;8.87;;;;;;;;;;4960194;28;20174;-44
2022/05/21 06:00:56;;;;;;;19.83;10.03;;;;;;;;;;4960747;28;20467;-43
2022/05/21 06:03:22;;;;;;;13.50;9.07;;;;;;;;;;4958453;28;20612;-44
2022/05/21 06:05:49;;;;;;;20.97;10.00;;;;;;;;;;4956864;28;20186;-42
2022/05/21 06:08:16;;;;;;;16.53;10.33;;;;;;;;;;4957517;28;20190;-43
2022/05/21 06:10:44;;;;;;;18.50;10.53;;;;;;;;;;4955321;28;20182;-43
2022/05/21 06:13:11;;;;;;;16.90;10.27;;;;;;;;;;4957969;28;20468;-42
2022/05/21 06:15:37;;;;;;;26.00;10.63;;;;;;;;;;4959017;28;20280;-42
2022/05/21 06:18:08;;;;;;;22.00;10.10;;;;;;;;;;4955029;28;20280;-45
2022/05/21 06:20:34;;;;;;;17.03;9.13;;;;;;;;;;4959617;28;20190;-42
2022/05/21 06:23:00;;;;;;;13.50;9.33;;;;;;;;;;4956296;28;20182;-42
2022/05/21 06:25:29;;;;;;;13.03;8.57;;;;;;;;;;4961334;28;20178;-41
2022/05/21 06:27:55;;;;;;;14.63;8.40;;;;;;;;;;4959606;28;20217;-42
2022/05/21 06:30:23;;;;;;;17.90;8.63;;;;;;;;;;4960510;28;20248;-42
2022/05/21 06:32:49;;;;;;;14.53;7.87;;;;;;;;;;4960020;28;21141;-42
2022/05/21 06:35:17;;;;;;;14.70;7.87;;;;;;;;;;4961495;28;20178;-42
2022/05/21 06:37:43;;;;;;;12.93;7.47;;;;;;;;;;4960150;28;20319;-42
2022/05/21 06:40:10;;;;;;;14.20;7.40;;;;;;;;;;4964041;28;20608;-42
2022/05/21 06:42:36;;;;;;;14.60;7.37;;;;;;;;;;4959679;28;20192;-42
2022/05/21 06:45:03;;;;;;;14.03;8.50;;;;;;;;;;4962980;28;20736;-41
2022/05/21 06:47:29;;;;;;;13.43;7.20;;;;;;;;;;4961159;28;20182;-42
2022/05/21 06:49:56;;;;;;;14.40;7.30;;;;;;;;;;4957659;28;20595;-42
2022/05/21 06:52:26;;;;;;;14.70;7.13;;;;;;;;;;4956078;28;20239;-42
2022/05/21 06:54:53;;;;;;;9.60;5.60;;;;;;;;;;4962908;28;20189;-41
2022/05/21 06:57:20;;;;;;;10.77;6.80;;;;;;;;;;4960004;28;20266;-41
2022/05/21 06:59:46;;;;;;;10.97;6.50;;;;;;;;;;4958563;28;20297;-42
2022/05/21 07:02:12;;;;;;;10.03;6.43;;;;;;;;;;4961953;28;20612;-42
2022/05/21 07:07:32;;;;;;;10.57;7.23;;;;;;;;;;4959691;28;20704;-42
2022/05/21 07:09:59;;;;;;;10.73;6.43;;;;;;;;;;4960049;28;20194;-42
2022/05/21 07:12:25;;;;;;;8.83;5.40;;;;;;;;;;4959305;28;20686;-41
2022/05/21 07:14:51;;;;;;;8.67;5.50;;;;;;;;;;4954067;28;20582;-42
2022/05/21 07:17:18;;;;;;;8.63;5.00;;;;;;;;;;4960224;28;20455;-42
2022/05/21 07:19:44;;;;;;;8.77;5.00;;;;;;;;;;4960208;28;20418;-42
2022/05/21 07:22:10;;;;;;;9.77;5.40;;;;;;;;;;4957725;28;20177;-42
2022/05/21 07:24:40;;;;;;;7.63;4.37;;;;;;;;;;4953943;28;20903;-42
2022/05/21 07:27:06;;;;;;;9.33;4.53;;;;;;;;;;4962850;28;20236;-42
2022/05/21 07:29:32;;;;;;;12.33;5.20;;;;;;;;;;4958305;28;20699;-42
2022/05/21 07:31:58;;;;;;;8.87;4.47;;;;;;;;;;4935385;28;20482;-42
2022/05/21 07:34:24;;;;;;;9.60;4.37;;;;;;;;;;4960709;28;20186;-42
2022/05/21 07:36:50;;;;;;;9.07;5.00;;;;;;;;;;4955246;28;20600;-42
2022/05/21 07:39:17;;;;;;;8.73;4.23;;;;;;;;;;4958278;28;20867;-42
2022/05/21 07:41:43;;;;;;;9.67;5.13;;;;;;;;;;4952414;28;20734;-43
2022/05/21 07:44:09;;;;;;;8.67;5.00;;;;;;;;;;4960091;28;20198;-43
2022/05/21 07:46:35;;;;;;;9.30;5.03;;;;;;;;;;4956554;28;20492;-42
2022/05/21 07:49:01;;;;;;;9.73;5.20;;;;;;;;;;4956984;28;20595;-42
2022/05/21 07:51:30;;;;;;;11.50;5.83;;;;;;;;;;4956861;28;20202;-42
2022/05/21 07:53:56;;;;;;;9.80;5.13;;;;;;;;;;4958852;28;20178;-45
2022/05/21 07:56:22;;;;;;;7.90;5.03;;;;;;;;;;4957882;28;20683;-42
2022/05/21 07:58:49;;;;;;;11.37;5.60;;;;;;;;;;4956573;28;20220;-43
2022/05/21 08:01:16;;;;;;;14.50;5.47;;;;;;;;;;4957413;28;20285;-43
2022/05/21 08:03:42;;;;;;;22.30;7.00;;;;;;;;;;4962062;28;20507;-42
2022/05/21 08:06:08;;;;;;;14.20;5.40;;;;;;;;;;4959089;28;20220;-43
2022/05/21 08:08:34;;;;;;;12.43;5.40;;;;;;;;;;4962347;28;21020;-42
2022/05/21 08:11:01;;;;;;;10.47;5.63;;;;;;;;;;4953255;28;20202;-42
2022/05/21 08:13:27;;;;;;;11.60;5.87;;;;;;;;;;4954612;28;20582;-41
2022/05/21 08:15:53;;;;;;;8.50;5.27;;;;;;;;;;4958037;28;20730;-43
2022/05/21 08:18:19;;;;;;;10.17;4.90;;;;;;;;;;4959885;28;20186;-42
2022/05/21 08:20:45;;;;;;;11.20;4.87;;;;;;;;;;4956237;28;20816;-43
2022/05/21 08:28:44;;;;;;;12.63;4.87;;;;;;;;;;4954773;28;20224;-42
2022/05/21 08:31:11;;;;;;;7.73;4.60;;;;;;;;;;4951733;28;20634;-43
2022/05/21 08:33:37;;;;;;;8.57;4.70;;;;;;;;;;4956331;28;20497;-40
2022/05/21 08:36:03;;;;;;;11.57;4.37;;;;;;;;;;4962103;28;20182;-42
2022/05/21 08:38:29;;;;;;;11.67;4.90;;;;;;;;;;4958266;28;20607;-42
2022/05/21 08:41:10;;;;;;;10.23;4.37;;;;;;;;;;4953511;28;20174;-43
2022/05/21 08:43:36;;;;;;;9.23;3.80;;;;;;;;;;4956744;28;20186;-42
2022/05/21 08:46:28;;;;;;;9.33;4.40;;;;;;;;;;4958435;28;20183;-43
2022/05/21 08:49:02;;;;;;;9.20;4.53;;;;;;;;;;4908016;28;20792;-43
2022/05/21 08:51:29;;;;;;;6.83;3.90;;;;;;;;;;4959030;28;20590;-42
2022/05/21 08:53:55;;;;;;;7.77;4.00;;;;;;;;;;4959902;28;20209;-43
2022/05/21 08:56:21;;;;;;;9.30;4.10;;;;;;;;;;4957613;28;20229;-42
2022/05/21 08:58:49;;;;;;;8.87;4.20;;;;;;;;;;4957046;28;20663;-43
2022/05/21 09:01:17;;;;;;;8.00;4.23;;;;;;;;;;4958284;28;20181;-43
2022/05/21 09:03:44;;;;;;;12.37;4.90;;;;;;;;;;4959439;28;20198;-42
2022/05/21 09:06:10;;;;;;;8.63;3.87;;;;;;;;;;4954719;28;20182;-43
2022/05/21 09:09:15;;;;;;;9.33;4.30;;;;;;;;;;4959569;28;20190;-43
2022/05/21 09:11:41;;;;;;;7.77;3.43;;;;;;;;;;4877183;29;20488;-43
2022/05/21 09:14:13;;;;;;;10.27;4.13;;;;;;;;;;4880718;29;20204;-42
2022/05/21 09:16:55;;;;;;;8.23;3.57;;;;;;;;;;4914807;28;20881;-43
2022/05/21 09:19:38;;;;;;;9.20;3.73;;;;;;;;;;4954210;28;20745;-43
2022/05/21 09:22:06;;;;;;;5.63;3.90;;;;;;;;;;4959690;28;20187;-43
2022/05/21 09:24:42;;;;;;;10.23;4.23;;;;;;;;;;4958918;28;20303;-42
2022/05/21 09:27:29;;;;;;;8.97;4.00;;;;;;;;;;4954673;28;20205;-43
2022/05/21 09:30:11;;;;;;;9.57;4.20;;;;;;;;;;4955426;28;20213;-43
2022/05/21 09:32:37;;;;;;;8.20;4.03;;;;;;;;;;4960675;28;20194;-41
2022/05/21 09:35:14;;;;;;;7.57;3.83;;;;;;;;;;4958923;28;20508;-44
2022/05/21 09:37:41;;;;;;;8.60;3.50;;;;;;;;;;4955745;28;20303;-43
2022/05/21 09:40:30;;;;;;;8.30;3.60;;;;;;;;;;4964663;28;20209;-43
2022/05/21 09:45:42;;;;;;;8.20;3.80;;;;;;;;;;4959596;28;20193;-42
2022/05/21 09:48:08;;;;;;;6.13;3.33;;;;;;;;;;4957489;28;20634;-42
2022/05/21 09:50:44;;;;;;;6.90;3.63;;;;;;;;;;4957165;28;20185;-44
2022/05/21 09:53:20;;;;;;;9.70;2.97;;;;;;;;;;4960870;28;20224;-43
2022/05/21 09:55:56;;;;;;;10.57;3.67;;;;;;;;;;4958880;28;20192;-43
2022/05/21 09:58:22;;;;;;;9.37;3.40;;;;;;;;;;4958110;28;20276;-43
2022/05/21 10:00:53;;;;;;;7.40;3.17;;;;;;;;;;4961264;28;20178;-42
2022/05/21 10:03:34;;;;;;;7.83;3.73;;;;;;;;;;4961616;28;20256;-44
2022/05/21 10:06:01;;;;;;;10.20;3.93;;;;;;;;;;4956838;28;20677;-44
2022/05/21 10:11:26;;;;;;;7.37;3.70;;;;;;;;;;4956313;28;20233;-44
2022/05/21 10:13:56;;;;;;;6.90;3.60;;;;;;;;;;4955813;28;20216;-44
2022/05/21 10:16:45;;;;;;;6.43;3.80;;;;;;;;;;4957255;28;20178;-44
2022/05/21 10:19:31;;;;;;;7.13;3.90;;;;;;;;;;4958560;28;20202;-44
2022/05/21 10:22:00;;;;;;;7.23;3.60;;;;;;;;;;4954389;28;21024;-44
2022/05/21 10:24:42;;;;;;;8.57;3.40;;;;;;;;;;4956961;28;20240;-44
2022/05/21 10:27:15;;;;;;;10.47;3.40;;;;;;;;;;4959767;28;20625;-43
2022/05/21 10:30:00;;;;;;;8.70;3.47;;;;;;;;;;4961480;28;20190;-43
2022/05/21 10:32:45;;;;;;;4.73;3.50;;;;;;;;;;4961462;28;20728;-43
2022/05/21 10:35:29;;;;;;;6.50;3.83;;;;;;;;;;4967711;28;20180;-45
2022/05/21 10:37:55;;;;;;;9.00;3.97;;;;;;;;;;4958168;28;20174;-44
2022/05/21 10:40:45;;;;;;;7.40;3.60;;;;;;;;;;4963231;28;20247;-44
2022/05/21 10:43:30;;;;;;;6.90;3.50;;;;;;;;;;4967813;28;20194;-44
2022/05/21 10:46:13;;;;;;;10.77;4.13;;;;;;;;;;4963176;28;20184;-43
2022/05/21 10:48:43;;;;;;;7.80;4.03;;;;;;;;;;4959657;28;20186;-44
2022/05/21 10:51:12;;;;;;;7.40;3.60;;;;;;;;;;4961247;28;20178;-43
2022/05/21 10:53:57;;;;;;;6.90;3.90;;;;;;;;;;4964602;28;20281;-43
2022/05/21 10:56:38;;;;;;;7.77;4.17;;;;;;;;;;4959374;28;20174;-43
2022/05/21 10:59:23;;;;;;;5.40;3.60;;;;;;;;;;4960187;28;20260;-42
2022/05/21 11:01:58;;;;;;;9.50;3.60;;;;;;;;;;4963689;28;20178;-44
2022/05/21 11:04:43;;;;;;;7.13;3.30;;;;;;;;;;4960808;28;20289;-43
2022/05/21 11:07:24;;;;;;;8.70;3.67;;;;;;;;;;4959730;28;20845;-43
2022/05/21 11:10:06;;;;;;;6.33;3.70;;;;;;;;;;4961356;28;20186;-43
2022/05/21 11:12:36;;;;;;;9.57;4.00;;;;;;;;;;4963185;28;20217;-44
2022/05/21 11:15:09;;;;;;;7.23;3.40;;;;;;;;;;4953421;28;20213;-43
2022/05/21 11:17:43;;;;;;;7.27;3.60;;;;;;;;;;4964279;28;20178;-43
2022/05/21 11:20:31;;;;;;;7.00;3.70;;;;;;;;;;4955506;28;20285;-43
2022/05/21 11:23:01;;;;;;;8.27;3.67;;;;;;;;;;4957263;28;21289;-44
2022/05/21 11:25:30;;;;;;;9.13;3.80;;;;;;;;;;4954428;28;20182;-43
2022/05/21 11:28:00;;;;;;;8.43;3.50;;;;;;;;;;4959004;28;20174;-42
2022/05/21 11:30:26;;;;;;;7.57;3.70;;;;;;;;;;4962264;28;20304;-43
2022/05/21 11:38:42;;;;;;;5.47;3.17;;;;;;;;;;4960840;28;20200;-43
2022/05/21 11:41:25;;;;;;;6.70;3.47;;;;;;;;;;4959214;28;20178;-43
2022/05/21 11:43:51;;;;;;;8.50;3.67;;;;;;;;;;4954796;28;20190;-43
2022/05/21 11:46:17;;;;;;;6.90;3.80;;;;;;;;;;4954720;28;20189;-44
2022/05/21 11:48:43;;;;;;;7.43;3.57;;;;;;;;;;4955830;28;20185;-42
2022/05/21 11:51:19;;;;;;;4.27;3.53;;;;;;;;;;4955695;28;20912;-43
2022/05/21 11:53:46;;;;;;;8.67;3.53;;;;;;;;;;4949607;28;20189;-43
2022/05/21 11:56:13;;;;;;;11.50;3.50;;;;;;;;;;4953355;28;20602;-43
2022/05/21 11:59:01;;;;;;;7.43;4.13;;;;;;;;;;4963683;28;20214;-43
2022/05/21 12:01:39;;;;;;;8.07;3.67;;;;;;;;;;4959686;28;20285;-43
2022/05/21 12:04:06;;;;;;;10.77;3.60;;;;;;;;;;4960103;28;20186;-44
2022/05/21 12:06:41;;;;;;;8.77;3.80;;;;;;;;;;4960425;28;20174;-44
2022/05/21 12:09:22;;;;;;;7.27;3.67;;;;;;;;;;4961720;28;21008;-44
2022/05/21 12:11:48;;;;;;;7.40;3.60;;;;;;;;;;4960291;28;20185;-43
2022/05/21 12:14:22;;;;;;;7.40;3.73;;;;;;;;;;4946089;28;21037;-43
2022/05/21 12:16:53;;;;;;;9.60;3.53;;;;;;;;;;4949446;28;20688;-43
2022/05/21 12:19:49;;;;;;;6.33;3.80;;;;;;;;;;4954710;28;20206;-42
2022/05/21 12:22:36;;;;;;;11.47;3.70;;;;;;;;;;4875249;28;20976;-44
2022/05/21 12:25:03;;;;;;;6.77;3.80;;;;;;;;;;4958320;28;20309;-44
2022/05/21 12:27:29;;;;;;;8.47;3.60;;;;;;;;;;4959155;28;20170;-44
2022/05/21 12:30:00;;;;;;;9.43;3.70;;;;;;;;;;4938748;28;20277;-44
2022/05/21 12:32:27;;;;;;;5.30;3.77;;;;;;;;;;4933755;28;20183;-44
2022/05/21 12:34:53;;;;;;;7.80;3.87;;;;;;;;;;4930027;28;20210;-43
2022/05/21 12:37:23;;;;;;;7.60;3.73;;;;;;;;;;4932633;28;20273;-44
2022/05/21 12:40:01;;;;;;;5.70;4.17;;;;;;;;;;4931917;28;20206;-44
2022/05/21 12:42:31;;;;;;;5.73;3.60;;;;;;;;;;4932526;28;21283;-44
2022/05/21 12:44:57;;;;;;;6.13;4.00;;;;;;;;;;4938087;28;20174;-44
2022/05/21 12:47:29;;;;;;;6.63;4.00;;;;;;;;;;4933466;28;20183;-43
2022/05/21 12:49:55;;;;;;;6.07;3.83;;;;;;;;;;4929217;28;20564;-44
2022/05/21 12:52:28;;;;;;;8.40;4.10;;;;;;;;;;4932461;28;20189;-43
2022/05/21 12:55:14;;;;;;;6.27;3.70;;;;;;;;;;4935071;28;20403;-42
2022/05/21 12:57:40;;;;;;;9.90;3.87;;;;;;;;;;4937944;28;20297;-44
2022/05/21 13:00:07;;;;;;;7.63;3.80;;;;;;;;;;4931586;28;20699;-44
2022/05/21 13:02:41;;;;;;;4.33;3.57;;;;;;;;;;4937797;28;20178;-44
2022/05/21 13:05:07;;;;;;;9.83;4.03;;;;;;;;;;4936362;28;20321;-44
2022/05/21 13:07:44;;;;;;;7.70;4.13;;;;;;;;;;4931017;28;20188;-44
2022/05/21 13:10:23;;;;;;;7.37;4.07;;;;;;;;;;4930999;28;20998;-43
2022/05/21 13:12:51;;;;;;;7.63;4.10;;;;;;;;;;4937250;28;20205;-44
2022/05/21 13:15:20;;;;;;;8.13;4.00;;;;;;;;;;4933195;28;20984;-44
2022/05/21 13:17:54;;;;;;;6.70;3.40;;;;;;;;;;4931593;28;20376;-43
2022/05/21 13:20:49;;;;;;;8.43;4.17;;;;;;;;;;4928708;28;20253;-44
2022/05/21 13:23:34;;;;;;;5.87;3.77;;;;;;;;;;4914248;28;21770;-44
2022/05/21 13:26:01;;;;;;;7.30;3.73;;;;;;;;;;4934331;28;20624;-44
2022/05/21 13:28:27;;;;;;;7.17;4.00;;;;;;;;;;4935540;28;20206;-44
2022/05/21 13:30:53;;;;;;;10.00;4.03;;;;;;;;;;4938208;28;20183;-44
2022/05/21 13:33:33;;;;;;;11.50;4.37;;;;;;;;;;4936418;28;20186;-44
2022/05/21 13:36:06;;;;;;;6.87;3.70;;;;;;;;;;4932510;28;20197;-44
2022/05/21 13:38:39;;;;;;;8.53;4.30;;;;;;;;;;4937562;28;20270;-43
2022/05/21 13:41:09;;;;;;;8.17;4.10;;;;;;;;;;4934035;28;20213;-44
2022/05/21 13:43:38;;;;;;;6.33;4.33;;;;;;;;;;4936343;28;20760;-45
2022/05/21 13:46:04;;;;;;;6.47;3.50;;;;;;;;;;4933804;28;20185;-43
2022/05/21 13:48:40;;;;;;;7.97;3.83;;;;;;;;;;4934187;28;20175;-43
2022/05/21 13:51:09;;;;;;;10.30;3.83;;;;;;;;;;4933384;28;20179;-43
2022/05/21 13:53:35;;;;;;;9.67;4.07;;;;;;;;;;4936750;28;20171;-44
2022/05/21 13:56:01;;;;;;;7.77;3.57;;;;;;;;;;4931613;28;21170;-43
2022/05/21 13:58:38;;;;;;;7.13;3.57;;;;;;;;;;4932107;28;21586;-44
2022/05/21 14:01:25;;;;;;;7.77;3.70;;;;;;;;;;4930101;28;20177;-44
2022/05/21 14:03:51;;;;;;;7.33;3.73;;;;;;;;;;4939999;28;20297;-44
2022/05/21 14:06:19;;;;;;;8.10;3.80;;;;;;;;;;4939408;28;21293;-43
2022/05/21 14:08:55;;;;;;;7.20;3.57;;;;;;;;;;4937965;28;21044;-44
2022/05/21 14:11:21;;;;;;;6.67;3.70;;;;;;;;;;4940313;28;20260;-43
2022/05/21 14:14:00;;;;;;;6.13;3.73;;;;;;;;;;4941940;28;21339;-43
2022/05/21 14:16:29;;;;;;;9.53;3.70;;;;;;;;;;4935784;28;20285;-43
2022/05/21 14:19:05;;;;;;;6.40;3.87;;;;;;;;;;4935732;28;20171;-43
2022/05/21 14:21:32;;;;;;;8.87;3.80;;;;;;;;;;4937153;28;21284;-43
2022/05/21 14:24:28;;;;;;;5.17;3.30;;;;;;;;;;4938863;28;20305;-44
2022/05/21 14:26:56;;;;;;;7.00;3.80;;;;;;;;;;4913249;28;20294;-43
2022/05/21 14:29:37;;;;;;;9.30;4.17;;;;;;;;;;4936204;28;20178;-44
2022/05/21 14:32:21;;;;;;;8.20;3.63;;;;;;;;;;4934422;28;20194;-44
2022/05/21 14:34:48;;;;;;;5.80;3.50;;;;;;;;;;4943701;28;20264;-43
2022/05/21 14:37:26;;;;;;;7.27;3.27;;;;;;;;;;4951201;28;20186;-43
2022/05/21 14:39:52;;;;;;;4.47;3.13;;;;;;;;;;4958779;28;20198;-42
2022/05/21 14:42:19;;;;;;;7.17;3.77;;;;;;;;;;4962844;28;20179;-42
2022/05/21 14:44:45;;;;;;;8.00;3.70;;;;;;;;;;4955613;28;20183;-42
2022/05/21 14:52:52;;;;;;;5.27;3.33;;;;;;;;;;4952568;28;20205;-43
2022/05/21 14:55:22;;;;;;;5.33;3.47;;;;;;;;;;4958536;28;20186;-42
2022/05/21 14:57:48;;;;;;;6.83;3.50;;;;;;;;;;4960207;28;20187;-43
2022/05/21 15:00:15;;;;;;;6.57;3.57;;;;;;;;;;4959401;28;20637;-43
2022/05/21 15:02:41;;;;;;;5.93;3.07;;;;;;;;;;4955866;28;20857;-42
2022/05/21 15:05:08;;;;;;;10.47;3.63;;;;;;;;;;4964364;28;20852;-41
2022/05/21 15:07:35;;;;;;;7.73;3.50;;;;;;;;;;4958291;28;20211;-40
2022/05/21 15:10:04;;;;;;;4.97;3.17;;;;;;;;;;4958806;28;20427;-42
2022/05/21 15:12:31;;;;;;;7.37;3.80;;;;;;;;;;4940735;28;20186;-41
2022/05/21 15:14:57;;;;;;;3.63;3.10;;;;;;;;;;4954098;28;20819;-42
2022/05/21 15:17:23;;;;;;;8.73;3.43;;;;;;;;;;4957313;28;20186;-42
2022/05/21 15:19:50;;;;;;;8.50;4.03;;;;;;;;;;4958515;28;20684;-42
2022/05/21 15:22:17;;;;;;;8.87;3.67;;;;;;;;;;4959083;28;20183;-42
2022/05/21 15:24:43;;;;;;;4.63;3.20;;;;;;;;;;4954994;28;20554;-42
2022/05/21 15:27:10;;;;;;;7.77;3.30;;;;;;;;;;4961556;28;20698;-43
2022/05/21 15:29:36;;;;;;;5.93;3.20;;;;;;;;;;4960474;28;20907;-42
2022/05/21 15:32:03;;;;;;;7.13;3.60;;;;;;;;;;4957247;28;20198;-41